sensor_id;sensor_type;location;lat;lon;timestamp;pressure;altitude;pressure_sealevel;temperature;humidity
31761;BME280;18335;51.486;7.562;2023-04-08T00:01:22;100802.03;;;5.06;100.00
31761;BME280;18335;51.486;7.562;2023-04-08T00:03:49;100799.56;;;5.02;100.00
31761;BME280;18335;51.486;7.562;2023-04-08T00:06:16;100803.44;;;4.87;100.00
31761;BME280;18335;51.486;7.562;2023-04-08T00:08:42;100801.09;;;4.83;100.00
31761;BME280;18335;51.486;7.562;2023-04-08T00:11:09;100808.75;;;4.89;100.00
31761;BME280;18335;51.486;7.562;2023-04-08T00:13:36;100811.41;;;4.78;100.00
31761;BME280;18335;51.486;7.562;2023-04-08T00:16:04;100801.03;;;4.72;100.00
31761;BME280;18335;51.486;7.562;2023-04-08T00:18:32;100811.31;;;4.67;100.00
31761;BME280;18335;51.486;7.562;2023-04-08T00:20:59;100808.66;;;4.54;100.00
31761;BME280;18335;51.486;7.562;2023-04-08T00:23:26;100813.47;;;4.38;100.00
31761;BME280;18335;51.486;7.562;2023-04-08T00:25:53;100808.03;;;4.51;100.00
31761;BME280;18335;51.486;7.562;2023-04-08T00:28:20;100817.94;;;4.63;100.00
31761;BME280;18335;51.486;7.562;2023-04-08T00:30:47;100812.31;;;4.66;100.00
31761;BME280;18335;51.486;7.562;2023-04-08T00:33:15;100817.94;;;4.63;100.00
31761;BME280;18335;51.486;7.562;2023-04-08T00:35:42;100815.50;;;4.47;100.00
31761;BME280;18335;51.486;7.562;2023-04-08T00:38:08;100818.53;;;4.42;100.00
31761;BME280;18335;51.486;7.562;2023-04-08T00:40:37;100821.00;;;4.45;100.00
31761;BME280;18335;51.486;7.562;2023-04-08T00:43:04;100819.53;;;4.41;100.00
31761;BME280;18335;51.486;7.562;2023-04-08T00:45:32;100820.41;;;4.29;100.00
31761;BME280;18335;51.486;7.562;2023-04-08T00:47:58;100816.13;;;4.14;100.00
31761;BME280;18335;51.486;7.562;2023-04-08T00:50:27;100820.97;;;4.22;100.00
31761;BME280;18335;51.486;7.562;2023-04-08T00:52:54;100825.84;;;4.17;100.00
31761;BME280;18335;51.486;7.562;2023-04-08T00:55:20;100822.56;;;4.24;100.00
31761;BME280;18335;51.486;7.562;2023-04-08T00:57:48;100835.91;;;4.15;100.00
31761;BME280;18335;51.486;7.562;2023-04-08T01:00:15;100828.78;;;4.01;100.00
31761;BME280;18335;51.486;7.562;2023-04-08T01:02:45;100836.66;;;4.04;100.00
31761;BME280;18335;51.486;7.562;2023-04-08T01:05:20;100835.34;;;4.10;100.00
31761;BME280;18335;51.486;7.562;2023-04-08T01:07:52;100838.16;;;3.83;100.00
31761;BME280;18335;51.486;7.562;2023-04-08T01:10:21;100835.16;;;3.87;100.00
31761;BME280;18335;51.486;7.562;2023-04-08T01:12:52;100837.09;;;4.11;100.00
31761;BME280;18335;51.486;7.562;2023-04-08T01:15:20;100837.53;;;3.92;100.00
31761;BME280;18335;51.486;7.562;2023-04-08T01:17:50;100837.53;;;3.92;100.00
31761;BME280;18335;51.486;7.562;2023-04-08T01:20:19;100834.47;;;4.09;100.00
31761;BME280;18335;51.486;7.562;2023-04-08T01:23:02;100833.50;;;4.10;100.00
31761;BME280;18335;51.486;7.562;2023-04-08T01:25:33;100834.25;;;4.25;100.00
31761;BME280;18335;51.486;7.562;2023-04-08T01:28:04;100832.69;;;3.97;100.00
31761;BME280;18335;51.486;7.562;2023-04-08T01:30:32;100837.94;;;4.11;100.00
31761;BME280;18335;51.486;7.562;2023-04-08T01:33:01;100835.53;;;4.32;100.00
31761;BME280;18335;51.486;7.562;2023-04-08T01:35:29;100837.72;;;4.14;100.00
31761;BME280;18335;51.486;7.562;2023-04-08T01:37:57;100833.00;;;4.05;100.00
31761;BME280;18335;51.486;7.562;2023-04-08T01:40:24;100829.53;;;4.03;100.00
31761;BME280;18335;51.486;7.562;2023-04-08T01:42:53;100829.50;;;4.16;100.00
31761;BME280;18335;51.486;7.562;2023-04-08T01:45:23;100836.03;;;3.75;100.00
31761;BME280;18335;51.486;7.562;2023-04-08T01:47:51;100844.66;;;3.80;100.00
31761;BME280;18335;51.486;7.562;2023-04-08T01:50:19;100838.38;;;3.80;100.00
31761;BME280;18335;51.486;7.562;2023-04-08T01:52:48;100832.34;;;3.64;100.00
31761;BME280;18335;51.486;7.562;2023-04-08T01:55:17;100831.50;;;3.76;100.00
31761;BME280;18335;51.486;7.562;2023-04-08T01:57:47;100834.41;;;3.73;100.00
31761;BME280;18335;51.486;7.562;2023-04-08T02:00:18;100837.41;;;3.56;100.00
31761;BME280;18335;51.486;7.562;2023-04-08T02:02:47;100839.88;;;3.59;100.00
31761;BME280;18335;51.486;7.562;2023-04-08T02:05:15;100845.28;;;3.59;100.00
31761;BME280;18335;51.486;7.562;2023-04-08T02:07:42;100844.84;;;3.65;100.00
31761;BME280;18335;51.486;7.562;2023-04-08T02:10:10;100847.91;;;3.73;100.00
31761;BME280;18335;51.486;7.562;2023-04-08T02:12:38;100847.44;;;3.54;100.00
31761;BME280;18335;51.486;7.562;2023-04-08T02:15:09;100850.69;;;3.71;100.00
31761;BME280;18335;51.486;7.562;2023-04-08T02:17:42;100854.34;;;3.70;100.00
31761;BME280;18335;51.486;7.562;2023-04-08T02:20:15;100849.41;;;3.77;100.00
31761;BME280;18335;51.486;7.562;2023-04-08T02:22:47;100851.59;;;3.97;100.00
31761;BME280;18335;51.486;7.562;2023-04-08T02:25:16;100861.06;;;3.90;100.00
31761;BME280;18335;51.486;7.562;2023-04-08T02:27:44;100863.22;;;3.98;100.00
31761;BME280;18335;51.486;7.562;2023-04-08T02:30:14;100860.94;;;3.91;100.00
31761;BME280;18335;51.486;7.562;2023-04-08T02:32:42;100857.81;;;3.98;100.00
31761;BME280;18335;51.486;7.562;2023-04-08T02:35:12;100854.47;;;4.19;100.00
31761;BME280;18335;51.486;7.562;2023-04-08T02:37:40;100851.97;;;4.29;100.00
31761;BME280;18335;51.486;7.562;2023-04-08T02:40:23;100847.66;;;4.14;100.00
31761;BME280;18335;51.486;7.562;2023-04-08T02:42:50;100850.78;;;4.20;100.00
31761;BME280;18335;51.486;7.562;2023-04-08T02:45:17;100847.09;;;4.21;100.00
31761;BME280;18335;51.486;7.562;2023-04-08T02:47:44;100853.50;;;4.20;100.00
31761;BME280;18335;51.486;7.562;2023-04-08T02:50:12;100855.75;;;4.14;100.00
31761;BME280;18335;51.486;7.562;2023-04-08T02:52:39;100860.28;;;4.13;100.00
31761;BME280;18335;51.486;7.562;2023-04-08T02:55:08;100858.56;;;4.12;100.00
31761;BME280;18335;51.486;7.562;2023-04-08T02:57:35;100861.47;;;4.22;100.00
31761;BME280;18335;51.486;7.562;2023-04-08T03:00:03;100872.06;;;4.12;100.00
31761;BME280;18335;51.486;7.562;2023-04-08T03:02:30;100866.34;;;4.17;100.00
31761;BME280;18335;51.486;7.562;2023-04-08T03:04:57;100857.69;;;4.24;100.00
31761;BME280;18335;51.486;7.562;2023-04-08T03:07:25;100857.25;;;4.30;100.00
31761;BME280;18335;51.486;7.562;2023-04-08T03:09:53;100869.47;;;4.36;100.00
31761;BME280;18335;51.486;7.562;2023-04-08T03:12:20;100865.56;;;4.27;100.00
31761;BME280;18335;51.486;7.562;2023-04-08T03:14:47;100871.09;;;4.26;100.00
31761;BME280;18335;51.486;7.562;2023-04-08T03:17:14;100870.31;;;4.36;100.00
31761;BME280;18335;51.486;7.562;2023-04-08T03:19:40;100873.50;;;4.18;100.00
31761;BME280;18335;51.486;7.562;2023-04-08T03:22:07;100873.34;;;4.44;100.00
31761;BME280;18335;51.486;7.562;2023-04-08T03:24:36;100876.56;;;4.50;100.00
31761;BME280;18335;51.486;7.562;2023-04-08T03:27:03;100876.63;;;4.61;100.00
31761;BME280;18335;51.486;7.562;2023-04-08T03:29:30;100880.88;;;4.52;100.00
31761;BME280;18335;51.486;7.562;2023-04-08T03:31:57;100880.50;;;4.69;100.00
31761;BME280;18335;51.486;7.562;2023-04-08T03:34:23;100881.31;;;4.82;100.00
31761;BME280;18335;51.486;7.562;2023-04-08T03:36:50;100881.38;;;4.70;100.00
31761;BME280;18335;51.486;7.562;2023-04-08T03:39:17;100885.22;;;4.78;100.00
31761;BME280;18335;51.486;7.562;2023-04-08T03:41:45;100889.25;;;4.73;100.00
31761;BME280;18335;51.486;7.562;2023-04-08T03:44:12;100889.88;;;4.76;100.00
31761;BME280;18335;51.486;7.562;2023-04-08T03:46:39;100882.75;;;4.75;100.00
31761;BME280;18335;51.486;7.562;2023-04-08T03:49:05;100881.84;;;4.87;100.00
31761;BME280;18335;51.486;7.562;2023-04-08T03:51:32;100879.44;;;4.95;100.00
31761;BME280;18335;51.486;7.562;2023-04-08T03:53:59;100880.97;;;4.87;100.00
31761;BME280;18335;51.486;7.562;2023-04-08T03:56:26;100884.56;;;5.11;100.00
31761;BME280;18335;51.486;7.562;2023-04-08T03:58:54;100880.59;;;5.04;100.00
31761;BME280;18335;51.486;7.562;2023-04-08T04:01:21;100876.34;;;4.89;100.00
31761;BME280;18335;51.486;7.562;2023-04-08T04:03:48;100875.97;;;5.17;100.00
31761;BME280;18335;51.486;7.562;2023-04-08T04:06:14;100870.47;;;5.19;100.00
31761;BME280;18335;51.486;7.562;2023-04-08T04:08:41;100875.25;;;5.15;100.00
31761;BME280;18335;51.486;7.562;2023-04-08T04:11:08;100870.22;;;5.22;100.00
31761;BME280;18335;51.486;7.562;2023-04-08T04:13:35;100883.06;;;5.07;100.00
31761;BME280;18335;51.486;7.562;2023-04-08T04:16:03;100876.75;;;5.19;100.00
31761;BME280;18335;51.486;7.562;2023-04-08T04:18:30;100877.53;;;5.32;100.00
31761;BME280;18335;51.486;7.562;2023-04-08T04:20:57;100871.19;;;5.21;100.00
31761;BME280;18335;51.486;7.562;2023-04-08T04:23:24;100874.31;;;5.27;100.00
31761;BME280;18335;51.486;7.562;2023-04-08T04:25:50;100882.28;;;5.29;100.00
31761;BME280;18335;51.486;7.562;2023-04-08T04:28:17;100879.09;;;5.24;100.00
31761;BME280;18335;51.486;7.562;2023-04-08T04:30:44;100882.22;;;5.41;100.00
31761;BME280;18335;51.486;7.562;2023-04-08T04:33:12;100886.41;;;5.34;100.00
31761;BME280;18335;51.486;7.562;2023-04-08T04:35:39;100885.94;;;5.40;100.00
31761;BME280;18335;51.486;7.562;2023-04-08T04:38:06;100889.38;;;5.42;100.00
31761;BME280;18335;51.486;7.562;2023-04-08T04:40:36;100893.81;;;5.43;100.00
31761;BME280;18335;51.486;7.562;2023-04-08T04:43:03;100888.47;;;5.31;100.00
31761;BME280;18335;51.486;7.562;2023-04-08T04:45:30;100895.59;;;5.32;100.00
31761;BME280;18335;51.486;7.562;2023-04-08T04:47:57;100901.78;;;5.34;100.00
31761;BME280;18335;51.486;7.562;2023-04-08T04:50:26;100897.38;;;5.44;100.00
31761;BME280;18335;51.486;7.562;2023-04-08T04:52:52;100902.72;;;5.56;100.00
31761;BME280;18335;51.486;7.562;2023-04-08T04:55:19;100897.13;;;5.47;100.00
31761;BME280;18335;51.486;7.562;2023-04-08T04:57:47;100900.22;;;5.42;100.00
31761;BME280;18335;51.486;7.562;2023-04-08T05:00:14;100904.09;;;5.62;100.00
31761;BME280;18335;51.486;7.562;2023-04-08T05:02:41;100895.22;;;5.60;100.00
31761;BME280;18335;51.486;7.562;2023-04-08T05:05:08;100897.06;;;5.59;100.00
31761;BME280;18335;51.486;7.562;2023-04-08T05:07:37;100896.13;;;5.72;100.00
31761;BME280;18335;51.486;7.562;2023-04-08T05:10:04;100902.25;;;5.74;100.00
31761;BME280;18335;51.486;7.562;2023-04-08T05:12:31;100899.72;;;5.83;100.00
31761;BME280;18335;51.486;7.562;2023-04-08T05:14:58;100903.34;;;5.95;100.00
31761;BME280;18335;51.486;7.562;2023-04-08T05:17:25;100915.19;;;5.94;100.00
31761;BME280;18335;51.486;7.562;2023-04-08T05:19:52;100910.38;;;5.74;100.00
31761;BME280;18335;51.486;7.562;2023-04-08T05:22:18;100919.78;;;5.81;100.00
31761;BME280;18335;51.486;7.562;2023-04-08T05:24:46;100918.22;;;5.89;100.00
31761;BME280;18335;51.486;7.562;2023-04-08T05:27:13;100930.81;;;5.90;100.00
31761;BME280;18335;51.486;7.562;2023-04-08T05:29:40;100930.31;;;5.85;100.00
31761;BME280;18335;51.486;7.562;2023-04-08T05:32:07;100927.66;;;5.84;100.00
31761;BME280;18335;51.486;7.562;2023-04-08T05:34:33;100934.91;;;5.72;100.00
31761;BME280;18335;51.486;7.562;2023-04-08T05:37:00;100931.13;;;5.86;100.00
31761;BME280;18335;51.486;7.562;2023-04-08T05:39:27;100926.97;;;5.93;100.00
31761;BME280;18335;51.486;7.562;2023-04-08T05:41:55;100922.25;;;5.84;100.00
31761;BME280;18335;51.486;7.562;2023-04-08T05:44:22;100931.69;;;6.02;100.00
31761;BME280;18335;51.486;7.562;2023-04-08T05:46:48;100931.19;;;5.97;100.00
31761;BME280;18335;51.486;7.562;2023-04-08T05:49:15;100929.31;;;5.97;100.00
31761;BME280;18335;51.486;7.562;2023-04-08T05:51:42;100936.88;;;6.05;100.00
31761;BME280;18335;51.486;7.562;2023-04-08T05:54:09;100928.75;;;6.16;100.00
31761;BME280;18335;51.486;7.562;2023-04-08T05:56:36;100945.72;;;6.07;100.00
31761;BME280;18335;51.486;7.562;2023-04-08T05:59:04;100947.47;;;6.08;100.00
31761;BME280;18335;51.486;7.562;2023-04-08T06:01:30;100956.31;;;6.10;100.00
31761;BME280;18335;51.486;7.562;2023-04-08T06:03:57;100948.91;;;6.01;100.00
31761;BME280;18335;51.486;7.562;2023-04-08T06:06:24;100954.88;;;6.17;100.00
31761;BME280;18335;51.486;7.562;2023-04-08T06:08:51;100961.56;;;6.24;100.00
31761;BME280;18335;51.486;7.562;2023-04-08T06:11:17;100964.34;;;6.11;100.00
31761;BME280;18335;51.486;7.562;2023-04-08T06:13:44;100963.50;;;6.22;100.00
31761;BME280;18335;51.486;7.562;2023-04-08T06:16:14;100957.59;;;6.39;100.00
31761;BME280;18335;51.486;7.562;2023-04-08T06:18:41;100956.38;;;6.32;100.00
31761;BME280;18335;51.486;7.562;2023-04-08T06:21:09;100968.91;;;6.33;100.00
31761;BME280;18335;51.486;7.562;2023-04-08T06:23:36;100980.53;;;6.24;100.00
31761;BME280;18335;51.486;7.562;2023-04-08T06:26:03;100982.34;;;6.24;100.00
31761;BME280;18335;51.486;7.562;2023-04-08T06:28:30;100987.94;;;6.44;100.00
31761;BME280;18335;51.486;7.562;2023-04-08T06:30:57;100988.91;;;6.43;100.00
31761;BME280;18335;51.486;7.562;2023-04-08T06:33:25;100990.13;;;6.39;100.00
31761;BME280;18335;51.486;7.562;2023-04-08T06:36:01;100981.78;;;6.53;100.00
31761;BME280;18335;51.486;7.562;2023-04-08T06:38:28;101002.22;;;6.35;100.00
31761;BME280;18335;51.486;7.562;2023-04-08T06:40:55;100985.72;;;6.49;100.00
31761;BME280;18335;51.486;7.562;2023-04-08T06:43:22;100992.38;;;6.56;100.00
31761;BME280;18335;51.486;7.562;2023-04-08T06:45:49;100994.38;;;6.65;100.00
31761;BME280;18335;51.486;7.562;2023-04-08T06:48:16;100990.41;;;6.58;100.00
31761;BME280;18335;51.486;7.562;2023-04-08T06:50:44;100988.19;;;6.63;100.00
31761;BME280;18335;51.486;7.562;2023-04-08T06:53:11;100990.16;;;6.61;100.00
31761;BME280;18335;51.486;7.562;2023-04-08T06:55:37;100989.91;;;6.64;100.00
31761;BME280;18335;51.486;7.562;2023-04-08T06:58:04;100987.44;;;6.73;100.00
31761;BME280;18335;51.486;7.562;2023-04-08T07:00:31;100991.16;;;6.72;100.00
31761;BME280;18335;51.486;7.562;2023-04-08T07:02:58;101004.47;;;6.75;100.00
31761;BME280;18335;51.486;7.562;2023-04-08T07:05:25;101003.00;;;6.71;100.00
31761;BME280;18335;51.486;7.562;2023-04-08T07:07:53;101007.44;;;6.72;100.00
31761;BME280;18335;51.486;7.562;2023-04-08T07:10:20;101001.63;;;6.76;100.00
31761;BME280;18335;51.486;7.562;2023-04-08T07:12:47;101012.13;;;6.81;100.00
31761;BME280;18335;51.486;7.562;2023-04-08T07:15:13;101017.03;;;6.76;100.00
31761;BME280;18335;51.486;7.562;2023-04-08T07:17:40;101025.44;;;6.95;100.00
31761;BME280;18335;51.486;7.562;2023-04-08T07:20:08;101021.50;;;6.99;100.00
31761;BME280;18335;51.486;7.562;2023-04-08T07:22:35;101018.25;;;7.05;100.00
31761;BME280;18335;51.486;7.562;2023-04-08T07:25:03;101016.28;;;7.18;100.00
31761;BME280;18335;51.486;7.562;2023-04-08T07:27:30;101017.25;;;7.39;100.00
31761;BME280;18335;51.486;7.562;2023-04-08T07:29:57;101016.53;;;7.37;100.00
31761;BME280;18335;51.486;7.562;2023-04-08T07:32:24;101017.66;;;7.35;100.00
31761;BME280;18335;51.486;7.562;2023-04-08T07:34:51;101011.53;;;7.53;100.00
31761;BME280;18335;51.486;7.562;2023-04-08T07:37:17;101016.53;;;7.37;100.00
31761;BME280;18335;51.486;7.562;2023-04-08T07:39:44;101011.53;;;7.53;100.00
31761;BME280;18335;51.486;7.562;2023-04-08T07:42:12;101016.25;;;7.51;100.00
31761;BME280;18335;51.486;7.562;2023-04-08T07:44:39;101018.59;;;7.45;100.00
31761;BME280;18335;51.486;7.562;2023-04-08T07:47:05;101027.13;;;7.40;100.00
31761;BME280;18335;51.486;7.562;2023-04-08T07:49:32;101029.34;;;7.35;100.00
31761;BME280;18335;51.486;7.562;2023-04-08T07:51:59;101029.38;;;7.24;100.00
31761;BME280;18335;51.486;7.562;2023-04-08T07:54:26;101034.00;;;7.44;100.00
31761;BME280;18335;51.486;7.562;2023-04-08T07:56:53;101037.75;;;7.21;100.00
31761;BME280;18335;51.486;7.562;2023-04-08T07:59:21;101039.75;;;7.19;100.00
31761;BME280;18335;51.486;7.562;2023-04-08T08:01:47;101044.91;;;7.00;100.00
31761;BME280;18335;51.486;7.562;2023-04-08T08:04:14;101057.00;;;7.07;100.00
31761;BME280;18335;51.486;7.562;2023-04-08T08:06:41;101053.41;;;7.17;100.00
31761;BME280;18335;51.486;7.562;2023-04-08T08:09:07;101046.72;;;7.55;100.00
31761;BME280;18335;51.486;7.562;2023-04-08T08:11:34;101049.19;;;7.58;100.00
31761;BME280;18335;51.486;7.562;2023-04-08T08:14:01;101051.22;;;7.76;100.00
31761;BME280;18335;51.486;7.562;2023-04-08T08:16:30;101051.50;;;7.62;100.00
31761;BME280;18335;51.486;7.562;2023-04-08T08:18:58;101048.91;;;7.72;100.00
31761;BME280;18335;51.486;7.562;2023-04-08T08:21:25;101052.59;;;7.71;100.00
31761;BME280;18335;51.486;7.562;2023-04-08T08:23:52;101057.22;;;7.48;100.00
31761;BME280;18335;51.486;7.562;2023-04-08T08:26:19;101062.63;;;7.59;100.00
31761;BME280;18335;51.486;7.562;2023-04-08T08:28:46;101065.34;;;7.59;100.00
31761;BME280;18335;51.486;7.562;2023-04-08T08:31:13;101065.66;;;7.77;100.00
31761;BME280;18335;51.486;7.562;2023-04-08T08:33:41;101082.78;;;7.89;100.00
31761;BME280;18335;51.486;7.562;2023-04-08T08:36:08;101087.91;;;7.82;100.00
31761;BME280;18335;51.486;7.562;2023-04-08T08:38:35;101087.16;;;7.80;100.00
31761;BME280;18335;51.486;7.562;2023-04-08T08:41:02;101085.63;;;7.98;100.00
31761;BME280;18335;51.486;7.562;2023-04-08T08:43:29;101079.47;;;8.28;100.00
31761;BME280;18335;51.486;7.562;2023-04-08T08:45:57;101085.31;;;8.12;100.00
31761;BME280;18335;51.486;7.562;2023-04-08T08:48:25;101093.47;;;8.12;100.00
31761;BME280;18335;51.486;7.562;2023-04-08T08:50:53;101090.97;;;7.77;100.00
31761;BME280;18335;51.486;7.562;2023-04-08T08:53:20;101081.63;;;7.70;100.00
31761;BME280;18335;51.486;7.562;2023-04-08T08:55:48;101088.22;;;7.89;100.00
31761;BME280;18335;51.486;7.562;2023-04-08T08:58:15;101088.22;;;7.89;100.00
31761;BME280;18335;51.486;7.562;2023-04-08T09:00:42;101086.94;;;8.04;100.00
31761;BME280;18335;51.486;7.562;2023-04-08T09:03:16;101096.91;;;7.71;100.00
31761;BME280;18335;51.486;7.562;2023-04-08T09:05:46;101101.41;;;7.61;100.00
31761;BME280;18335;51.486;7.562;2023-04-08T09:08:24;101094.59;;;7.67;100.00
31761;BME280;18335;51.486;7.562;2023-04-08T09:10:51;101096.66;;;7.74;100.00
31761;BME280;18335;51.486;7.562;2023-04-08T09:13:18;101094.94;;;7.85;100.00
31761;BME280;18335;51.486;7.562;2023-04-08T09:16:02;101093.16;;;7.95;100.00
31761;BME280;18335;51.486;7.562;2023-04-08T09:18:29;101093.91;;;7.86;100.00
31761;BME280;18335;51.486;7.562;2023-04-08T09:20:58;101093.84;;;8.08;100.00
31761;BME280;18335;51.486;7.562;2023-04-08T09:23:37;101091.91;;;7.99;100.00
31761;BME280;18335;51.486;7.562;2023-04-08T09:26:07;101095.25;;;8.34;100.00
31761;BME280;18335;51.486;7.562;2023-04-08T09:28:34;101091.78;;;8.64;100.00
31761;BME280;18335;51.486;7.562;2023-04-08T09:31:17;101098.69;;;8.68;100.00
31761;BME280;18335;51.486;7.562;2023-04-08T09:33:44;101100.97;;;8.52;100.00
31761;BME280;18335;51.486;7.562;2023-04-08T09:36:12;101115.59;;;8.51;100.00
31761;BME280;18335;51.486;7.562;2023-04-08T09:38:40;101106.28;;;8.21;100.00
31761;BME280;18335;51.486;7.562;2023-04-08T09:41:07;101112.38;;;8.46;100.00
31761;BME280;18335;51.486;7.562;2023-04-08T09:43:39;101108.84;;;8.45;100.00
31761;BME280;18335;51.486;7.562;2023-04-08T09:46:10;101119.28;;;8.18;100.00
31761;BME280;18335;51.486;7.562;2023-04-08T09:48:41;101115.06;;;8.36;100.00
31761;BME280;18335;51.486;7.562;2023-04-08T09:51:11;101112.97;;;8.28;100.00
31761;BME280;18335;51.486;7.562;2023-04-08T09:53:46;101118.63;;;8.25;100.00
31761;BME280;18335;51.486;7.562;2023-04-08T09:56:13;101119.88;;;8.32;100.00
31761;BME280;18335;51.486;7.562;2023-04-08T09:59:01;101124.59;;;8.51;100.00
31761;BME280;18335;51.486;7.562;2023-04-08T10:01:35;101122.34;;;8.36;100.00
31761;BME280;18335;51.486;7.562;2023-04-08T10:04:04;101119.91;;;8.74;100.00
31761;BME280;18335;51.486;7.562;2023-04-08T10:06:34;101114.00;;;8.89;100.00
31761;BME280;18335;51.486;7.562;2023-04-08T10:09:04;101114.72;;;8.92;100.00
31761;BME280;18335;51.486;7.562;2023-04-08T10:11:32;101108.59;;;9.20;100.00
31761;BME280;18335;51.486;7.562;2023-04-08T10:14:01;101103.59;;;9.25;100.00
31761;BME280;18335;51.486;7.562;2023-04-08T10:16:28;101103.34;;;9.28;100.00
31761;BME280;18335;51.486;7.562;2023-04-08T10:18:55;101116.84;;;9.39;100.00
31761;BME280;18335;51.486;7.562;2023-04-08T10:21:35;101115.94;;;9.29;100.00
31761;BME280;18335;51.486;7.562;2023-04-08T10:24:07;101119.75;;;9.47;100.00
31761;BME280;18335;51.486;7.562;2023-04-08T10:26:35;101119.06;;;9.94;100.00
31761;BME280;18335;51.486;7.562;2023-04-08T10:29:30;101120.09;;;9.63;100.00
31761;BME280;18335;51.486;7.562;2023-04-08T10:31:57;101117.22;;;9.25;100.00
31761;BME280;18335;51.486;7.562;2023-04-08T10:34:25;101115.09;;;9.28;100.00
31761;BME280;18335;51.486;7.562;2023-04-08T10:36:54;101117.75;;;9.19;100.00
31761;BME280;18335;51.486;7.562;2023-04-08T10:39:24;101118.84;;;9.37;100.00
31761;BME280;18335;51.486;7.562;2023-04-08T10:41:51;101109.41;;;9.81;100.00
31761;BME280;18335;51.486;7.562;2023-04-08T10:44:19;101105.44;;;9.55;100.00
31761;BME280;18335;51.486;7.562;2023-04-08T10:46:47;101102.75;;;10.23;100.00
31761;BME280;18335;51.486;7.562;2023-04-08T10:49:15;101090.91;;;9.84;100.00
31761;BME280;18335;51.486;7.562;2023-04-08T10:51:42;101095.28;;;10.16;100.00
31761;BME280;18335;51.486;7.562;2023-04-08T10:54:11;101102.63;;;10.44;100.00
31761;BME280;18335;51.486;7.562;2023-04-08T10:56:44;101100.72;;;10.73;100.00
31761;BME280;18335;51.486;7.562;2023-04-08T10:59:12;101098.16;;;10.72;100.00
31761;BME280;18335;51.486;7.562;2023-04-08T11:01:42;101101.47;;;10.46;100.00
31761;BME280;18335;51.486;7.562;2023-04-08T11:04:13;101098.75;;;10.56;100.00
31761;BME280;18335;51.486;7.562;2023-04-08T11:06:42;101097.00;;;10.65;100.00
31761;BME280;18335;51.486;7.562;2023-04-08T11:09:09;101090.56;;;11.22;100.00
31761;BME280;18335;51.486;7.562;2023-04-08T11:11:36;101098.47;;;11.25;100.00
31761;BME280;18335;51.486;7.562;2023-04-08T11:14:04;101091.50;;;11.77;100.00
31761;BME280;18335;51.486;7.562;2023-04-08T11:16:33;101083.16;;;11.96;100.00
31761;BME280;18335;51.486;7.562;2023-04-08T11:19:01;101088.81;;;11.21;100.00
31761;BME280;18335;51.486;7.562;2023-04-08T11:21:29;101094.88;;;11.15;100.00
31761;BME280;18335;51.486;7.562;2023-04-08T11:23:56;101090.97;;;11.27;100.00
31761;BME280;18335;51.486;7.562;2023-04-08T11:26:24;101099.53;;;11.04;100.00
31761;BME280;18335;51.486;7.562;2023-04-08T11:28:52;101099.19;;;10.42;100.00
31761;BME280;18335;51.486;7.562;2023-04-08T11:31:21;101101.47;;;10.18;100.00
31761;BME280;18335;51.486;7.562;2023-04-08T11:33:48;101094.38;;;10.06;100.00
31761;BME280;18335;51.486;7.562;2023-04-08T11:36:19;101101.47;;;10.27;100.00
31761;BME280;18335;51.486;7.562;2023-04-08T11:38:46;101093.56;;;10.15;100.00
31761;BME280;18335;51.486;7.562;2023-04-08T11:41:13;101088.13;;;10.15;100.00
31761;BME280;18335;51.486;7.562;2023-04-08T11:43:50;101095.25;;;10.06;100.00
31761;BME280;18335;51.486;7.562;2023-04-08T11:46:17;101099.03;;;10.24;100.00
31761;BME280;18335;51.486;7.562;2023-04-08T11:48:58;101093.00;;;10.40;100.00
31761;BME280;18335;51.486;7.562;2023-04-08T11:51:25;101090.84;;;10.43;100.00
31761;BME280;18335;51.486;7.562;2023-04-08T11:53:53;101092.13;;;10.49;100.00
31761;BME280;18335;51.486;7.562;2023-04-08T11:56:20;101095.53;;;10.89;100.00
31761;BME280;18335;51.486;7.562;2023-04-08T11:58:48;101092.63;;;11.00;100.00
31761;BME280;18335;51.486;7.562;2023-04-08T12:01:14;101094.78;;;10.97;100.00
31761;BME280;18335;51.486;7.562;2023-04-08T12:03:53;101103.63;;;10.43;100.00
31761;BME280;18335;51.486;7.562;2023-04-08T12:06:21;101104.34;;;10.26;100.00
31761;BME280;18335;51.486;7.562;2023-04-08T12:08:48;101100.44;;;10.19;100.00
31761;BME280;18335;51.486;7.562;2023-04-08T12:11:15;101100.19;;;10.41;100.00
31761;BME280;18335;51.486;7.562;2023-04-08T12:13:42;101099.19;;;10.42;100.00
31761;BME280;18335;51.486;7.562;2023-04-08T12:16:09;101089.53;;;10.76;100.00
31761;BME280;18335;51.486;7.562;2023-04-08T12:18:36;101101.44;;;10.75;100.00
31761;BME280;18335;51.486;7.562;2023-04-08T12:21:03;101101.28;;;10.96;100.00
31761;BME280;18335;51.486;7.562;2023-04-08T12:23:31;101101.22;;;11.05;100.00
31761;BME280;18335;51.486;7.562;2023-04-08T12:25:58;101103.91;;;10.59;100.00
31761;BME280;18335;51.486;7.562;2023-04-08T12:28:24;101105.34;;;10.44;100.00
31761;BME280;18335;51.486;7.562;2023-04-08T12:30:51;101098.56;;;10.86;100.00
31761;BME280;18335;51.486;7.562;2023-04-08T12:33:18;101103.38;;;11.11;100.00
31761;BME280;18335;51.486;7.562;2023-04-08T12:35:44;101103.00;;;10.87;100.00
31761;BME280;18335;51.486;7.562;2023-04-08T12:38:11;101104.19;;;10.56;100.00
31761;BME280;18335;51.486;7.562;2023-04-08T12:40:39;101100.19;;;10.41;100.00
31761;BME280;18335;51.486;7.562;2023-04-08T12:43:06;101095.97;;;10.75;100.00
31761;BME280;18335;51.486;7.562;2023-04-08T12:45:33;101099.72;;;10.84;100.00
31761;BME280;18335;51.486;7.562;2023-04-08T12:47:59;101095.78;;;11.05;100.00
31761;BME280;18335;51.486;7.562;2023-04-08T12:50:26;101101.13;;;10.97;100.00
31761;BME280;18335;51.486;7.562;2023-04-08T12:52:53;101088.66;;;10.76;100.00